Time;durP1;ratioP1;P1;durP2;ratioP2;P2;SDS_P1;SDS_P2;PMS_P1;PMS_P2;Temp;Humidity;BMP_temperature;BMP_pressure;BME280_temperature;BME280_humidity;BME280_pressure;Samples;Min_cycle;Max_cycle;Signal;HPM_P1;HPM_P2
2022/05/24 00:01:41;;;;;;;1.10;1.00;;;22.20;69.10;;;;;;4145287;28;20100;-70
2022/05/24 00:04:03;;;;;;;0.00;0.00;;;22.20;69.20;;;;;;4145232;28;20405;-69
2022/05/24 00:06:29;;;;;;;0.00;0.00;;;22.20;69.30;;;;;;4130487;28;20150;-66
2022/05/24 00:08:51;;;;;;;0.00;0.00;;;22.20;69.20;;;;;;4144587;28;20042;-67
2022/05/24 00:11:13;;;;;;;0.17;0.17;;;22.20;69.30;;;;;;4161412;28;20163;-66
2022/05/24 00:13:37;;;;;;;0.00;0.00;;;22.20;69.30;;;;;;4161250;28;20061;-66
2022/05/24 00:15:59;;;;;;;0.00;0.00;;;22.20;69.40;;;;;;4160876;28;20077;-66
2022/05/24 00:18:24;;;;;;;0.00;0.00;;;22.20;69.30;;;;;;4146399;28;20052;-66
2022/05/24 00:20:48;;;;;;;0.00;0.00;;;22.20;69.00;;;;;;4160446;28;20136;-66
2022/05/24 00:23:11;;;;;;;0.10;0.10;;;22.20;69.10;;;;;;4161140;28;20115;-67
2022/05/24 00:25:35;;;;;;;0.00;0.00;;;22.10;69.20;;;;;;4160761;28;20447;-67
2022/05/24 00:27:58;;;;;;;0.00;0.00;;;22.10;69.10;;;;;;4161076;28;20504;-66
2022/05/24 00:30:23;;;;;;;17.00;1.85;;;22.10;69.20;;;;;;4161041;28;20136;-67
2022/05/24 00:32:45;;;;;;;0.38;0.38;;;22.10;68.90;;;;;;4161379;28;20099;-67
2022/05/24 00:35:12;;;;;;;0.00;0.00;;;22.10;68.80;;;;;;4159021;28;20115;-66
2022/05/24 00:37:37;;;;;;;0.68;0.68;;;22.10;68.90;;;;;;4160057;28;20037;-67
2022/05/24 00:39:59;;;;;;;0.38;0.30;;;22.10;69.00;;;;;;4143417;28;20461;-67
2022/05/24 00:42:25;;;;;;;0.00;0.00;;;22.10;69.10;;;;;;4154781;28;20045;-69
2022/05/24 00:44:52;;;;;;;0.00;0.00;;;22.10;69.10;;;;;;4160737;28;20140;-69
2022/05/24 00:47:23;;;;;;;1.25;1.15;;;22.10;69.20;;;;;;4160212;28;20041;-69
2022/05/24 00:49:48;;;;;;;0.15;0.15;;;22.10;69.10;;;;;;4160752;28;20091;-69
2022/05/24 00:52:17;;;;;;;0.00;0.00;;;22.00;68.80;;;;;;4145625;28;20049;-69
2022/05/24 00:54:44;;;;;;;0.00;0.00;;;22.00;69.00;;;;;;4160224;28;20053;-69
2022/05/24 00:57:12;;;;;;;0.00;0.00;;;22.00;69.10;;;;;;4160283;28;20048;-69
2022/05/24 00:59:41;;;;;;;0.00;0.00;;;22.00;69.10;;;;;;4144318;28;20048;-67
2022/05/24 01:02:04;;;;;;;0.00;0.00;;;22.00;69.10;;;;;;4129148;28;20449;-66
2022/05/24 01:04:30;;;;;;;0.00;0.00;;;22.00;69.10;;;;;;4143974;28;20042;-69
2022/05/24 01:06:53;;;;;;;0.00;0.00;;;22.00;69.10;;;;;;4128791;28;20054;-67
2022/05/24 01:09:19;;;;;;;0.00;0.00;;;22.00;68.80;;;;;;4144006;28;20500;-67
2022/05/24 01:11:43;;;;;;;0.00;0.00;;;22.00;68.80;;;;;;4143897;28;20042;-68
2022/05/24 01:14:07;;;;;;;0.00;0.00;;;22.00;68.80;;;;;;4153883;28;20045;-68
2022/05/24 01:16:29;;;;;;;0.00;0.00;;;22.00;68.80;;;;;;4160302;28;20103;-67
2022/05/24 01:18:51;;;;;;;0.00;0.00;;;21.90;68.90;;;;;;4159860;28;20095;-67
2022/05/24 01:21:17;;;;;;;0.00;0.00;;;21.90;68.90;;;;;;4145765;28;20428;-68
2022/05/24 01:23:59;;;;;;;0.00;0.00;;;21.90;69.00;;;;;;4147514;28;23166;-68
2022/05/24 01:26:27;;;;;;;0.00;0.00;;;21.90;69.00;;;;;;4160446;28;20053;-68
2022/05/24 01:28:54;;;;;;;0.00;0.00;;;21.90;69.00;;;;;;4160395;28;20464;-68
2022/05/24 01:31:16;;;;;;;0.00;0.00;;;21.90;69.00;;;;;;4160530;28;20069;-68
2022/05/24 01:36:22;;;;;;;0.00;0.00;;;21.90;68.90;;;;;;4159675;28;20069;-68
2022/05/24 01:38:48;;;;;;;0.00;0.00;;;21.90;68.90;;;;;;4160112;28;20502;-67
2022/05/24 01:41:13;;;;;;;0.00;0.00;;;21.90;68.90;;;;;;4160331;28;20385;-67
2022/05/24 01:43:38;;;;;;;0.00;0.00;;;21.90;69.00;;;;;;4160147;28;20054;-67
2022/05/24 01:46:04;;;;;;;0.00;0.00;;;21.90;68.80;;;;;;4159527;28;20064;-68
2022/05/24 01:48:31;;;;;;;0.00;0.00;;;21.90;68.80;;;;;;4160034;28;20095;-67
2022/05/24 01:50:55;;;;;;;0.80;0.80;;;21.90;68.70;;;;;;4160433;28;20550;-68
2022/05/24 01:53:31;;;;;;;0.00;0.00;;;21.90;68.80;;;;;;4160582;28;20053;-65
2022/05/24 01:56:18;;;;;;;0.20;0.20;;;21.90;68.80;;;;;;4145262;28;20056;-67
2022/05/24 01:58:42;;;;;;;0.00;0.00;;;21.80;68.70;;;;;;4146122;28;20052;-65
2022/05/24 02:01:13;;;;;;;0.00;0.00;;;21.80;68.80;;;;;;4161118;28;20050;-65
2022/05/24 02:03:35;;;;;;;0.00;0.00;;;21.80;68.70;;;;;;4153742;28;20164;-65
2022/05/24 02:05:58;;;;;;;0.00;0.00;;;21.80;68.80;;;;;;4144186;28;20053;-65
2022/05/24 02:08:20;;;;;;;0.20;0.20;;;21.80;68.80;;;;;;4128665;28;20100;-65
2022/05/24 02:10:46;;;;;;;0.00;0.00;;;21.80;68.70;;;;;;4154509;28;20057;-65
2022/05/24 02:13:09;;;;;;;0.00;0.00;;;21.80;68.70;;;;;;4145893;28;20169;-65
2022/05/24 02:15:35;;;;;;;0.63;0.63;;;21.80;68.70;;;;;;4159660;28;20400;-65
2022/05/24 02:18:03;;;;;;;0.10;0.10;;;21.80;68.70;;;;;;4159183;28;20053;-65
2022/05/24 02:20:29;;;;;;;0.00;0.00;;;21.80;68.70;;;;;;4159350;28;20552;-65
2022/05/24 02:22:51;;;;;;;0.00;0.00;;;21.80;68.70;;;;;;4160070;28;20069;-65
2022/05/24 02:25:17;;;;;;;0.00;0.00;;;21.70;68.70;;;;;;4159929;28;20456;-65
2022/05/24 02:27:43;;;;;;;0.05;0.05;;;21.80;68.70;;;;;;4144961;28;20108;-65
2022/05/24 02:30:06;;;;;;;0.00;0.00;;;21.70;68.70;;;;;;4155276;28;20068;-65
2022/05/24 02:32:28;;;;;;;0.00;0.00;;;21.70;68.70;;;;;;4159824;28;20435;-65
2022/05/24 02:34:52;;;;;;;0.00;0.00;;;21.80;68.70;;;;;;4159706;28;20047;-65
2022/05/24 02:37:14;;;;;;;0.00;0.00;;;21.70;68.70;;;;;;4159601;28;20048;-65
2022/05/24 02:41:28;;;;;;;0.10;0.10;;;21.70;68.70;;;;;;4159377;28;20038;-65
2022/05/24 02:42:18;;;;;;;0.00;0.00;;;21.70;68.70;;;;;;4144378;28;20077;-66
2022/05/24 02:44:40;;;;;;;0.10;0.10;;;21.70;68.70;;;;;;4161285;28;20095;-66
2022/05/24 02:47:02;;;;;;;0.38;0.38;;;21.70;68.70;;;;;;4162718;28;20042;-65
2022/05/24 02:49:24;;;;;;;0.00;0.00;;;21.70;68.70;;;;;;4162568;28;20502;-65
2022/05/24 02:51:47;;;;;;;0.00;0.00;;;21.70;68.70;;;;;;4162144;28;20485;-65
2022/05/24 02:54:09;;;;;;;0.20;0.20;;;21.70;68.70;;;;;;4162676;28;20092;-65
2022/05/24 02:56:31;;;;;;;0.00;0.00;;;21.70;68.60;;;;;;4147845;28;20088;-64
2022/05/24 02:58:57;;;;;;;1.17;0.93;;;21.70;69.40;;;;;;4147728;28;20048;-64
2022/05/24 03:01:21;;;;;;;0.10;0.10;;;21.70;69.40;;;;;;4146721;28;20108;-65
2022/05/24 03:03:43;;;;;;;0.00;0.00;;;21.70;68.60;;;;;;4162177;28;20099;-64
2022/05/24 03:06:05;;;;;;;0.00;0.00;;;21.70;68.60;;;;;;4133389;28;20046;-65
2022/05/24 03:11:10;;;;;;;0.00;0.00;;;21.60;68.60;;;;;;4161672;28;20048;-64
2022/05/24 03:16:16;;;;;;;2.33;1.95;;;21.70;68.70;;;;;;4145323;28;20127;-66
2022/05/24 03:18:38;;;;;;;0.00;0.00;;;21.60;68.70;;;;;;4145396;28;20042;-67
2022/05/24 03:21:00;;;;;;;0.00;0.00;;;21.60;68.70;;;;;;4161145;28;20156;-67
2022/05/24 03:23:22;;;;;;;0.00;0.00;;;21.60;68.70;;;;;;4162206;28;20065;-66
2022/05/24 03:25:46;;;;;;;0.00;0.00;;;21.60;68.70;;;;;;4146929;28;20097;-66
2022/05/24 03:28:09;;;;;;;0.00;0.00;;;21.60;68.70;;;;;;4161612;28;20447;-66
2022/05/24 03:30:32;;;;;;;0.10;0.10;;;21.60;69.60;;;;;;4161495;28;20053;-66
2022/05/24 03:32:55;;;;;;;0.00;0.00;;;21.60;68.80;;;;;;4162148;28;20053;-66
2022/05/24 03:35:17;;;;;;;0.00;0.00;;;21.60;68.80;;;;;;4161245;28;20411;-66
2022/05/24 03:37:40;;;;;;;0.00;0.00;;;21.60;68.90;;;;;;4146730;28;20046;-66
2022/05/24 03:40:02;;;;;;;0.00;0.00;;;21.60;68.80;;;;;;4161288;28;20049;-66
2022/05/24 03:42:26;;;;;;;2.75;0.65;;;21.60;68.90;;;;;;4155772;28;20046;-66
2022/05/24 03:44:49;;;;;;;0.00;0.00;;;21.60;68.90;;;;;;4145896;28;20050;-66
2022/05/24 03:47:11;;;;;;;2.03;1.60;;;21.50;68.90;;;;;;4145939;28;20117;-66
2022/05/24 03:49:33;;;;;;;0.00;0.00;;;21.50;68.90;;;;;;4130652;28;20053;-66
2022/05/24 03:51:55;;;;;;;0.03;0.03;;;21.50;68.90;;;;;;4145077;28;20050;-66
2022/05/24 03:54:17;;;;;;;0.35;0.35;;;21.50;68.90;;;;;;4154097;28;20049;-66
2022/05/24 03:57:59;;;;;;;0.00;0.00;;;21.50;69.00;;;;;;4160934;28;20507;-67
2022/05/24 03:59:25;;;;;;;0.00;0.00;;;21.50;69.90;;;;;;4161459;28;20053;-66
2022/05/24 04:01:47;;;;;;;0.30;0.30;;;21.50;69.10;;;;;;4145952;28;20433;-67
2022/05/24 04:04:09;;;;;;;0.00;0.00;;;21.50;69.10;;;;;;4161697;28;20064;-66
2022/05/24 04:06:31;;;;;;;0.00;0.00;;;21.50;69.00;;;;;;4160851;28;20373;-66
2022/05/24 04:08:53;;;;;;;0.00;0.00;;;21.50;69.10;;;;;;4161749;28;20103;-68
2022/05/24 04:11:15;;;;;;;0.30;0.30;;;21.50;69.20;;;;;;4161458;28;20053;-69
2022/05/24 04:13:39;;;;;;;0.00;0.00;;;21.50;69.20;;;;;;4161387;28;20515;-69
2022/05/24 04:16:05;;;;;;;0.00;0.00;;;21.40;69.20;;;;;;4161602;28;20071;-67
2022/05/24 04:18:28;;;;;;;0.32;0.15;;;21.40;69.20;;;;;;4160419;28;20049;-68
2022/05/24 04:20:50;;;;;;;0.00;0.00;;;21.40;69.20;;;;;;4160971;28;20499;-68
2022/05/24 04:23:14;;;;;;;3.20;2.03;;;21.40;69.10;;;;;;4161154;28;20068;-67
2022/05/24 04:25:37;;;;;;;0.00;0.00;;;21.40;69.20;;;;;;4161006;28;20111;-67
2022/05/24 04:27:58;;;;;;;0.00;0.00;;;21.40;69.30;;;;;;4161031;28;20471;-67
2022/05/24 04:30:24;;;;;;;0.00;0.00;;;21.40;69.40;;;;;;4161450;28;20492;-67
2022/05/24 04:32:47;;;;;;;0.00;0.00;;;21.40;69.40;;;;;;4145613;28;20073;-67
2022/05/24 04:35:10;;;;;;;0.00;0.00;;;21.40;69.40;;;;;;4161257;28;20508;-67
2022/05/24 04:37:32;;;;;;;0.00;0.00;;;21.40;69.40;;;;;;4160952;28;20056;-67
2022/05/24 04:39:54;;;;;;;0.00;0.00;;;21.40;69.50;;;;;;4160671;28;20045;-67
2022/05/24 04:42:24;;;;;;;0.00;0.00;;;21.40;69.60;;;;;;4160304;28;20050;-67
2022/05/24 04:44:48;;;;;;;0.17;0.17;;;21.40;69.60;;;;;;4160475;28;20452;-67
2022/05/24 04:47:10;;;;;;;0.43;0.43;;;21.40;69.60;;;;;;4160862;28;20053;-67
2022/05/24 04:49:34;;;;;;;0.57;0.57;;;21.40;69.60;;;;;;4160175;28;20045;-67
2022/05/24 04:51:56;;;;;;;0.55;0.55;;;21.40;69.60;;;;;;4161168;28;20135;-67
2022/05/24 04:54:20;;;;;;;0.40;0.40;;;21.30;69.50;;;;;;4160369;28;20054;-67
2022/05/24 04:56:42;;;;;;;0.10;0.10;;;21.40;69.60;;;;;;4142968;28;20063;-67
2022/05/24 04:59:04;;;;;;;0.00;0.00;;;21.40;69.60;;;;;;4115707;28;20101;-67
2022/05/24 05:01:27;;;;;;;0.68;0.68;;;21.30;69.60;;;;;;4144612;28;20073;-68
2022/05/24 05:03:49;;;;;;;0.05;0.05;;;21.30;69.70;;;;;;4144258;28;20077;-67
2022/05/24 05:06:13;;;;;;;0.00;0.00;;;21.40;69.70;;;;;;4144330;28;20125;-67
2022/05/24 05:08:35;;;;;;;0.30;0.30;;;21.30;69.70;;;;;;4145129;28;20485;-67
2022/05/24 05:10:57;;;;;;;0.00;0.00;;;21.40;69.80;;;;;;4160308;28;20125;-67
2022/05/24 05:13:19;;;;;;;0.20;0.17;;;21.40;69.70;;;;;;4147706;28;20048;-67
2022/05/24 05:15:41;;;;;;;0.10;0.10;;;21.40;69.80;;;;;;4144253;28;20147;-67
2022/05/24 05:18:04;;;;;;;0.00;0.00;;;21.40;69.70;;;;;;4143926;28;20065;-68
2022/05/24 05:20:27;;;;;;;0.35;0.35;;;21.40;69.80;;;;;;4155250;28;20052;-67
2022/05/24 05:22:50;;;;;;;0.00;0.00;;;21.40;69.80;;;;;;4160629;28;20558;-68
2022/05/24 05:25:11;;;;;;;0.00;0.00;;;21.40;69.70;;;;;;4145503;28;20046;-66
2022/05/24 05:27:33;;;;;;;1.30;0.20;;;21.40;69.80;;;;;;4159755;28;20053;-68
2022/05/24 05:32:36;;;;;;;0.20;0.20;;;21.40;69.80;;;;;;4158255;28;20104;-67
2022/05/24 05:34:59;;;;;;;0.00;0.00;;;21.40;69.80;;;;;;4158814;28;20076;-66
2022/05/24 05:37:22;;;;;;;5.47;2.17;;;21.40;69.80;;;;;;4152095;28;20041;-63
2022/05/24 05:39:48;;;;;;;0.00;0.00;;;21.40;69.70;;;;;;4144961;28;20088;-63
2022/05/24 05:42:11;;;;;;;0.32;0.32;;;21.40;69.70;;;;;;4156708;28;20050;-62
2022/05/24 05:44:33;;;;;;;1.00;1.00;;;21.40;69.70;;;;;;4128890;28;20053;-62
2022/05/24 05:46:55;;;;;;;0.13;0.13;;;21.40;70.10;;;;;;4149618;28;20053;-66
2022/05/24 05:49:18;;;;;;;0.95;0.95;;;21.40;70.00;;;;;;4144960;28;20088;-66
2022/05/24 05:51:40;;;;;;;0.05;0.05;;;21.40;69.70;;;;;;4156948;28;20405;-62
2022/05/24 05:54:05;;;;;;;0.00;0.00;;;21.40;69.40;;;;;;4159979;28;20049;-65
2022/05/24 05:56:28;;;;;;;0.52;0.52;;;21.40;69.30;;;;;;4159255;28;20051;-63
2022/05/24 05:58:50;;;;;;;0.10;0.10;;;21.40;69.30;;;;;;4159815;28;20063;-63
2022/05/24 06:01:17;;;;;;;0.68;0.60;;;21.40;69.30;;;;;;4154127;28;20044;-63
2022/05/24 06:03:39;;;;;;;0.25;0.25;;;21.40;69.30;;;;;;4143222;28;20133;-67
2022/05/24 06:06:01;;;;;;;3.10;1.75;;;21.40;69.30;;;;;;4143336;28;20069;-66
2022/05/24 06:08:23;;;;;;;0.10;0.10;;;21.30;69.10;;;;;;4159931;28;20535;-66
2022/05/24 06:10:45;;;;;;;0.38;0.32;;;21.30;69.10;;;;;;4159849;28;20137;-66
2022/05/24 06:13:09;;;;;;;2.10;0.73;;;21.30;69.10;;;;;;4143009;28;20045;-67
2022/05/24 06:15:33;;;;;;;0.00;0.00;;;21.30;70.00;;;;;;4142856;28;20050;-66
2022/05/24 06:17:55;;;;;;;0.00;0.00;;;21.30;69.10;;;;;;4128606;28;20057;-67
2022/05/24 06:20:20;;;;;;;0.38;0.38;;;21.30;69.20;;;;;;4146494;28;20049;-65
2022/05/24 06:22:42;;;;;;;0.65;0.65;;;21.30;69.10;;;;;;4159820;28;20045;-66
2022/05/24 06:25:08;;;;;;;0.00;0.00;;;21.30;69.10;;;;;;4160674;28;20132;-68
2022/05/24 06:27:30;;;;;;;0.43;0.43;;;21.30;69.00;;;;;;4160024;28;20467;-69
2022/05/24 06:29:54;;;;;;;0.00;0.00;;;21.30;68.90;;;;;;4160332;28;20111;-68
2022/05/24 06:32:16;;;;;;;0.22;0.22;;;21.30;68.70;;;;;;4159998;28;20048;-68
2022/05/24 06:34:38;;;;;;;0.00;0.00;;;21.30;68.60;;;;;;4160047;28;20103;-67
2022/05/24 06:37:01;;;;;;;0.00;0.00;;;21.40;68.40;;;;;;4145309;28;20100;-68
2022/05/24 06:39:23;;;;;;;1.02;0.80;;;21.30;68.30;;;;;;4159374;28;20060;-67
2022/05/24 06:41:45;;;;;;;1.35;1.25;;;21.30;68.10;;;;;;4159396;28;20092;-67
2022/05/24 06:44:09;;;;;;;0.08;0.08;;;21.30;68.00;;;;;;4159443;28;20041;-63
2022/05/24 06:46:33;;;;;;;0.05;0.05;;;21.30;67.70;;;;;;4159702;28;20073;-63
2022/05/24 06:48:55;;;;;;;0.05;0.05;;;21.30;67.50;;;;;;4144150;28;20042;-67
2022/05/24 06:51:20;;;;;;;1.10;1.10;;;21.30;67.40;;;;;;4160208;28;20068;-67
2022/05/24 06:53:45;;;;;;;0.20;0.20;;;21.30;67.40;;;;;;4159396;28;20103;-66
2022/05/24 06:56:08;;;;;;;0.08;0.08;;;21.30;67.30;;;;;;4159588;28;20046;-67
2022/05/24 06:58:30;;;;;;;0.00;0.00;;;21.30;67.20;;;;;;4159544;28;20041;-66
2022/05/24 07:03:33;;;;;;;0.00;0.00;;;21.30;67.20;;;;;;4158525;28;20068;-66
2022/05/24 07:05:56;;;;;;;2.10;1.00;;;21.30;67.10;;;;;;4158770;28;20057;-67
2022/05/24 07:08:18;;;;;;;1.45;1.27;;;21.30;67.90;;;;;;4144630;28;20054;-67
2022/05/24 07:10:40;;;;;;;1.85;1.27;;;21.30;67.00;;;;;;4158961;28;20069;-67
2022/05/24 07:13:04;;;;;;;1.02;0.80;;;21.20;66.90;;;;;;4159155;28;20049;-68
2022/05/24 07:15:27;;;;;;;0.30;0.30;;;21.20;66.70;;;;;;4159376;28;20076;-70
2022/05/24 07:17:50;;;;;;;0.05;0.05;;;21.20;66.60;;;;;;4159393;28;20100;-68
2022/05/24 07:20:14;;;;;;;1.10;1.02;;;21.20;66.60;;;;;;4160018;28;20088;-69
2022/05/24 07:22:37;;;;;;;0.03;0.03;;;21.20;66.50;;;;;;4159631;28;20550;-70
2022/05/24 07:25:00;;;;;;;0.22;0.22;;;21.20;66.50;;;;;;4144409;28;20045;-70
2022/05/24 07:27:23;;;;;;;0.30;0.30;;;21.20;66.50;;;;;;4159557;28;20140;-68
2022/05/24 07:29:46;;;;;;;0.00;0.00;;;21.20;66.50;;;;;;4144083;28;20088;-68
2022/05/24 07:32:09;;;;;;;0.05;0.05;;;21.20;66.50;;;;;;4158885;28;20046;-68
2022/05/24 07:34:32;;;;;;;0.00;0.00;;;21.20;66.50;;;;;;4158764;28;20045;-69
2022/05/24 07:36:57;;;;;;;0.22;0.22;;;21.20;66.50;;;;;;4157940;28;20156;-68
2022/05/24 07:39:19;;;;;;;0.15;0.15;;;21.20;66.60;;;;;;4158579;28;20125;-68
2022/05/24 07:47:21;;;;;;;0.03;0.03;;;21.20;66.50;;;;;;4158515;28;20049;-69
2022/05/24 07:49:43;;;;;;;0.22;0.22;;;21.20;66.50;;;;;;4158333;28;20057;-69
2022/05/24 07:52:07;;;;;;;0.25;0.25;;;21.20;66.50;;;;;;4142475;28;20050;-69
2022/05/24 07:54:29;;;;;;;0.00;0.00;;;21.10;66.60;;;;;;4157517;28;20041;-69
2022/05/24 07:56:51;;;;;;;0.17;0.17;;;21.10;66.80;;;;;;4157902;28;20137;-67
2022/05/24 07:59:14;;;;;;;0.32;0.32;;;21.10;67.40;;;;;;4156687;28;20139;-69
2022/05/24 08:01:36;;;;;;;0.00;0.00;;;21.20;68.10;;;;;;4157819;28;20081;-69
2022/05/24 08:04:01;;;;;;;0.47;0.47;;;21.20;67.70;;;;;;4157489;28;20064;-68
2022/05/24 08:06:23;;;;;;;0.00;0.00;;;21.20;67.50;;;;;;4157567;28;20045;-69
2022/05/24 08:08:47;;;;;;;0.08;0.08;;;21.20;67.50;;;;;;4157438;28;20123;-68
2022/05/24 08:11:09;;;;;;;0.00;0.00;;;21.20;67.60;;;;;;4158231;28;20144;-68
2022/05/24 08:13:32;;;;;;;0.00;0.00;;;21.10;67.70;;;;;;4157863;28;20052;-68
2022/05/24 08:15:56;;;;;;;0.17;0.17;;;21.10;67.80;;;;;;4157426;28;20460;-68
2022/05/24 08:18:19;;;;;;;0.45;0.45;;;21.10;67.80;;;;;;4157275;28;20174;-68
2022/05/24 08:20:41;;;;;;;0.13;0.13;;;21.10;67.90;;;;;;4157138;28;20065;-68
2022/05/24 08:23:04;;;;;;;0.82;0.65;;;21.10;68.10;;;;;;4156433;28;20086;-68
2022/05/24 08:25:33;;;;;;;0.08;0.08;;;21.10;68.20;;;;;;4157843;28;20409;-68
2022/05/24 08:27:58;;;;;;;0.00;0.00;;;21.10;68.20;;;;;;4156879;28;20380;-68
2022/05/24 08:30:20;;;;;;;0.20;0.20;;;21.10;68.40;;;;;;4157343;28;20108;-68
2022/05/24 08:32:42;;;;;;;0.00;0.00;;;21.10;68.40;;;;;;4157877;28;20041;-69
2022/05/24 08:35:05;;;;;;;0.13;0.13;;;21.10;68.50;;;;;;4156972;28;20059;-68
2022/05/24 08:37:32;;;;;;;0.00;0.00;;;21.10;68.50;;;;;;4157135;28;20057;-68
2022/05/24 08:39:57;;;;;;;0.10;0.10;;;21.10;68.70;;;;;;4157346;28;20083;-68
2022/05/24 08:42:27;;;;;;;0.00;0.00;;;21.10;68.80;;;;;;4155962;28;20123;-67
2022/05/24 08:50:37;;;;;;;0.20;0.20;;;21.10;68.80;;;;;;4220958;27;20937;-67
2022/05/24 08:53:05;;;;;;;1.08;0.85;;;21.10;68.80;;;;;;4208299;27;20135;-67
2022/05/24 08:55:34;;;;;;;0.00;0.00;;;21.20;68.90;;;;;;4208248;27;20051;-67
2022/05/24 08:57:59;;;;;;;0.10;0.10;;;21.10;68.80;;;;;;4207466;27;20449;-67
2022/05/24 09:00:26;;;;;;;0.00;0.00;;;21.10;68.70;;;;;;4221380;27;20470;-68
2022/05/24 09:02:49;;;;;;;0.77;0.77;;;21.20;68.90;;;;;;4221537;27;20150;-67
2022/05/24 09:05:18;;;;;;;0.65;0.65;;;21.20;68.70;;;;;;4212494;27;20082;-66
2022/05/24 09:07:45;;;;;;;0.00;0.00;;;21.20;68.60;;;;;;4218652;27;20048;-68
2022/05/24 09:10:13;;;;;;;0.20;0.20;;;21.20;68.60;;;;;;4221403;27;20455;-68
2022/05/24 09:13:02;;;;;;;0.40;0.40;;;21.20;68.60;;;;;;4213389;27;20054;-67
2022/05/24 09:15:35;;;;;;;0.10;0.10;;;21.20;68.30;;;;;;4211963;27;20164;-67
2022/05/24 09:18:12;;;;;;;0.45;0.45;;;21.20;68.20;;;;;;4218998;27;20051;-67
2022/05/24 09:20:36;;;;;;;2.08;1.98;;;21.20;68.30;;;;;;4213129;27;20142;-67
2022/05/24 09:23:04;;;;;;;0.00;0.00;;;21.20;68.30;;;;;;4217779;28;20090;-67
2022/05/24 09:25:32;;;;;;;0.00;0.00;;;21.20;68.10;;;;;;4211620;27;20109;-68
2022/05/24 09:27:55;;;;;;;0.30;0.30;;;21.20;68.00;;;;;;4194685;28;20118;-67
2022/05/24 09:30:25;;;;;;;0.00;0.00;;;21.20;67.80;;;;;;4204182;28;20044;-68
2022/05/24 09:32:47;;;;;;;0.00;0.00;;;21.20;67.80;;;;;;4205002;28;20067;-67
2022/05/24 09:35:22;;;;;;;0.00;0.00;;;21.20;67.70;;;;;;4206781;28;20349;-67
2022/05/24 09:37:46;;;;;;;14.68;2.83;;;21.10;67.80;;;;;;4214235;27;20044;-68
2022/05/24 09:40:21;;;;;;;0.77;0.77;;;21.20;67.70;;;;;;4220808;27;20451;-67
2022/05/24 09:42:43;;;;;;;1.25;0.47;;;21.10;67.90;;;;;;4210585;27;20040;-67
2022/05/24 09:45:10;;;;;;;0.17;0.17;;;21.10;67.90;;;;;;4217986;27;20056;-67
2022/05/24 09:47:37;;;;;;;0.00;0.00;;;21.10;68.00;;;;;;4204706;27;20044;-67
2022/05/24 09:50:23;;;;;;;0.00;0.00;;;21.10;68.00;;;;;;4213462;27;20113;-68
2022/05/24 09:53:09;;;;;;;0.00;0.00;;;21.10;68.00;;;;;;4216127;27;20497;-67
2022/05/24 09:55:40;;;;;;;0.00;0.00;;;21.10;68.90;;;;;;4215983;27;20044;-68
2022/05/24 09:58:27;;;;;;;0.05;0.05;;;21.10;68.00;;;;;;4220727;27;20056;-66
2022/05/24 10:00:51;;;;;;;1.95;0.52;;;21.10;68.10;;;;;;4210022;27;20052;-69
2022/05/24 10:03:13;;;;;;;0.00;0.00;;;21.00;68.00;;;;;;4193737;28;20118;-67
2022/05/24 10:05:36;;;;;;;0.00;0.00;;;21.00;68.00;;;;;;4202754;28;20058;-70
2022/05/24 10:08:00;;;;;;;0.28;0.28;;;21.00;67.60;;;;;;4196785;28;20055;-67
2022/05/24 10:10:29;;;;;;;0.00;0.00;;;21.00;67.30;;;;;;4209011;28;20051;-70
2022/05/24 10:13:03;;;;;;;0.03;0.03;;;21.00;68.00;;;;;;4196458;28;20055;-70
2022/05/24 10:15:34;;;;;;;0.22;0.22;;;21.00;68.10;;;;;;4204095;28;20407;-69
2022/05/24 10:18:16;;;;;;;0.67;0.67;;;21.00;67.90;;;;;;4199224;28;20047;-70
2022/05/24 10:20:47;;;;;;;0.20;0.20;;;21.00;68.00;;;;;;4204613;28;20317;-70
2022/05/24 10:23:15;;;;;;;0.00;0.00;;;21.00;68.10;;;;;;4203632;28;20464;-68
2022/05/24 10:25:44;;;;;;;0.32;0.32;;;21.00;68.10;;;;;;4206304;28;20084;-69
2022/05/24 10:28:20;;;;;;;3.75;2.25;;;21.00;68.00;;;;;;4194474;28;20064;-69
2022/05/24 10:30:56;;;;;;;0.40;0.40;;;21.00;68.00;;;;;;4194089;28;20040;-69
2022/05/24 10:39:03;;;;;;;0.00;0.00;;;21.00;68.00;;;;;;4191907;28;20070;-70
2022/05/24 10:41:28;;;;;;;0.00;0.00;;;21.10;68.10;;;;;;4199476;28;20076;-64
2022/05/24 10:43:58;;;;;;;0.75;0.75;;;21.10;68.00;;;;;;4208552;28;20055;-64
2022/05/24 10:46:25;;;;;;;0.00;0.00;;;21.10;67.90;;;;;;4208683;28;20048;-64
2022/05/24 10:48:56;;;;;;;0.00;0.00;;;21.10;67.80;;;;;;4192647;28;20669;-65
2022/05/24 10:51:26;;;;;;;0.10;0.10;;;21.10;67.60;;;;;;4200600;28;20040;-65
2022/05/24 10:53:53;;;;;;;0.43;0.43;;;21.10;67.70;;;;;;4201202;28;20471;-64
2022/05/24 10:56:25;;;;;;;0.00;0.00;;;21.10;67.30;;;;;;4192541;28;20486;-64
2022/05/24 10:58:50;;;;;;;0.00;0.00;;;21.10;67.10;;;;;;4205788;28;20399;-64
2022/05/24 11:01:24;;;;;;;0.90;0.77;;;21.10;66.70;;;;;;4208448;28;20047;-65
2022/05/24 11:03:50;;;;;;;0.00;0.00;;;21.00;67.10;;;;;;4206379;28;20453;-64
2022/05/24 11:06:18;;;;;;;0.35;0.35;;;21.00;67.10;;;;;;4204545;28;20181;-64
2022/05/24 11:08:49;;;;;;;0.45;0.45;;;21.10;67.30;;;;;;4201509;28;20052;-66
2022/05/24 11:11:21;;;;;;;0.00;0.00;;;21.00;67.40;;;;;;4198839;28;20055;-64
2022/05/24 11:13:48;;;;;;;0.00;0.00;;;20.90;67.50;;;;;;4201926;28;20044;-64
2022/05/24 11:16:19;;;;;;;0.43;0.43;;;20.90;67.60;;;;;;4204926;28;20129;-63
2022/05/24 11:18:42;;;;;;;0.00;0.00;;;20.90;67.60;;;;;;4205025;28;20052;-63
2022/05/24 11:21:11;;;;;;;0.17;0.17;;;20.90;67.50;;;;;;4202964;28;20059;-63
2022/05/24 11:23:37;;;;;;;0.52;0.52;;;20.90;67.30;;;;;;4202518;28;20147;-64
2022/05/24 11:26:09;;;;;;;0.00;0.00;;;20.90;67.30;;;;;;4199565;28;20040;-65
2022/05/24 11:28:34;;;;;;;0.35;0.35;;;21.00;67.50;;;;;;4205175;28;20489;-62
2022/05/24 11:31:21;;;;;;;0.00;0.00;;;21.00;67.10;;;;;;4197201;28;20367;-63
2022/05/24 11:33:45;;;;;;;0.10;0.10;;;20.90;67.20;;;;;;4204164;28;20556;-65
2022/05/24 11:36:36;;;;;;;0.30;0.30;;;20.90;67.20;;;;;;4193320;28;20049;-64
2022/05/24 11:39:08;;;;;;;0.15;0.15;;;20.90;67.30;;;;;;4193678;28;20045;-66
2022/05/24 11:41:32;;;;;;;0.30;0.30;;;21.00;67.50;;;;;;4195606;28;20488;-66
2022/05/24 11:44:01;;;;;;;0.00;0.00;;;20.90;67.70;;;;;;4176988;28;20503;-66
2022/05/24 11:46:48;;;;;;;0.00;0.00;;;20.90;67.80;;;;;;4176811;28;20538;-65
2022/05/24 11:49:32;;;;;;;0.00;0.00;;;20.90;68.00;;;;;;4192522;28;20052;-65
2022/05/24 11:51:55;;;;;;;0.00;0.00;;;20.90;67.50;;;;;;4192976;28;20476;-63
2022/05/24 11:54:55;;;;;;;0.03;0.03;;;20.90;67.70;;;;;;4193683;28;20134;-63
2022/05/24 11:57:27;;;;;;;14.70;1.20;;;20.90;67.80;;;;;;4192961;28;20040;-63
2022/05/24 11:59:51;;;;;;;0.32;0.32;;;20.90;68.10;;;;;;4203133;28;20047;-64
2022/05/24 12:08:42;;;;;;;0.80;0.80;;;21.00;68.10;;;;;;4226316;28;20048;-66
2022/05/24 12:11:17;;;;;;;0.00;0.00;;;21.00;68.00;;;;;;4227022;27;20054;-66
2022/05/24 12:14:10;;;;;;;0.00;0.00;;;21.00;68.10;;;;;;4210904;28;20067;-64
2022/05/24 12:16:37;;;;;;;0.00;0.00;;;21.00;67.80;;;;;;4209651;28;20043;-64
2022/05/24 12:19:03;;;;;;;0.00;0.00;;;21.00;67.70;;;;;;4209935;28;20153;-63
2022/05/24 12:21:57;;;;;;;0.52;0.52;;;21.00;67.60;;;;;;4209744;28;20059;-64
2022/05/24 12:24:47;;;;;;;0.00;0.00;;;21.00;67.70;;;;;;4213677;28;20088;-64
2022/05/24 12:27:16;;;;;;;0.00;0.00;;;21.00;67.50;;;;;;4197623;28;20048;-64
2022/05/24 12:29:42;;;;;;;0.13;0.13;;;21.00;67.60;;;;;;4226399;28;20055;-65
2022/05/24 12:32:05;;;;;;;0.00;0.00;;;21.00;68.40;;;;;;4226465;28;20045;-65
2022/05/24 12:34:27;;;;;;;0.00;0.00;;;21.00;67.40;;;;;;4193352;28;20428;-66
2022/05/24 12:36:52;;;;;;;1.00;1.00;;;21.00;67.40;;;;;;4193186;28;20060;-63
2022/05/24 12:39:33;;;;;;;0.00;0.00;;;21.00;67.10;;;;;;4192882;28;20047;-65
2022/05/24 12:41:58;;;;;;;0.28;0.28;;;21.00;66.80;;;;;;4193979;28;20048;-65
2022/05/24 12:44:23;;;;;;;0.00;0.00;;;21.00;67.10;;;;;;4224808;28;20116;-66
2022/05/24 12:46:51;;;;;;;0.00;0.00;;;21.00;66.60;;;;;;4224644;27;20048;-65
2022/05/24 12:49:18;;;;;;;0.00;0.00;;;21.00;66.90;;;;;;4207789;28;20093;-64
2022/05/24 12:51:40;;;;;;;0.00;0.00;;;21.00;67.60;;;;;;4209130;28;20048;-65
2022/05/24 12:54:17;;;;;;;0.00;0.00;;;21.00;66.50;;;;;;4209732;28;20566;-64
2022/05/24 12:56:39;;;;;;;0.00;0.00;;;21.00;66.80;;;;;;4192840;28;20060;-64
2022/05/24 12:59:11;;;;;;;0.70;0.55;;;21.00;66.70;;;;;;4191125;28;20114;-64
2022/05/24 13:01:32;;;;;;;;;;;21.00;66.60;;;;;;4193476;28;20056;-66
2022/05/24 13:04:08;;;;;;;0.00;0.00;;;21.00;66.60;;;;;;4176129;28;20015;-65
2022/05/24 13:06:45;;;;;;;0.00;0.00;;;21.00;66.60;;;;;;4191124;28;20076;-65
2022/05/24 13:09:21;;;;;;;0.30;0.30;;;21.00;66.90;;;;;;4192682;28;20049;-63
2022/05/24 13:11:44;;;;;;;0.35;0.35;;;21.00;67.10;;;;;;4176077;28;20048;-64
2022/05/24 13:14:10;;;;;;;0.00;0.00;;;21.00;68.00;;;;;;4175976;28;20106;-64
2022/05/24 13:16:40;;;;;;;0.00;0.00;;;21.00;67.40;;;;;;4198672;28;20048;-63
2022/05/24 13:19:04;;;;;;;0.00;0.00;;;21.00;67.50;;;;;;4207980;28;20480;-64